PWSweather.com
Personal Weather Stations
Station Observations
SEVNO44
Sevno, PrimskovoSI 1276

SevnoPrimskovoSI 1276

Lat: 45.9796285, Lon: 14.924044999999978

Elevation: 1706.0368

Station Type: WS-2307

www.primskovo.eu/vreme

High Low Average
Temperature 66.6°F19.2°C 46.9°F8.3°C 54.8°F12.7°C
Dew Point 53.8°F12.1°C 39.8°F4.3°C 47.1°F8.4°C
Winds 9.9 mph 15.9 kmh Calm Calm 2.0 mph SSE3.2 kmh SSE
Wind Gusts 11.6 mph18.7 kmh -- 3.0 mph4.8 kmh
Humidity 85% 60% 76%
Pressure 30.16 in1021.3 mb 29.95 in1014.2 mb -
Precipitation 0.00 in0.0 mm - -
Hour Temp Dew Point Humidity Winds Wind Gusts Pressure Precip Precip Rate Daily Precip Total
12:00 AM 51.4°F10.8°C 41.6°F5.3°C 69% Calm Calm -- 30.16 in1021.3 mb 0.00 in0.0 mm 0.00 in0.0 mm 0.00 in0.0 mm
12:05 AM 51.4°F10.8°C 41.6°F5.3°C 69% Calm Calm -- 30.16 in1021.3 mb 0.00 in0.0 mm 0.00 in0.0 mm 0.00 in0.0 mm
12:10 AM 51.3°F10.7°C 41.4°F5.2°C 69% Calm Calm -- 30.16 in1021.3 mb 0.00 in0.0 mm 0.00 in0.0 mm 0.00 in0.0 mm
12:15 AM 51.3°F10.7°C 41.4°F5.2°C 69% Calm Calm -- 30.16 in1021.3 mb 0.00 in0.0 mm 0.00 in0.0 mm 0.00 in0.0 mm
12:20 AM 50.9°F10.5°C 41.1°F5.1°C 69% Calm Calm -- 30.16 in1021.3 mb 0.00 in0.0 mm 0.00 in0.0 mm 0.00 in0.0 mm
12:25 AM 50.7°F10.4°C 40.9°F4.9°C 69% 0.1 mph NNW0.2 kmh NNW 1.1 mph1.8 kmh 30.16 in1021.3 mb 0.00 in0.0 mm 0.00 in0.0 mm 0.00 in0.0 mm
12:30 AM 50.7°F10.4°C 40.9°F4.9°C 69% 0.7 mph N1.1 kmh N 1.6 mph2.6 kmh 30.16 in1021.3 mb 0.00 in0.0 mm 0.00 in0.0 mm 0.00 in0.0 mm
12:35 AM 50.4°F10.2°C 40.6°F4.8°C 69% 0.8 mph N1.3 kmh N 1.6 mph2.6 kmh 30.16 in1021.3 mb 0.00 in0.0 mm 0.00 in0.0 mm 0.00 in0.0 mm
12:37 AM 50.4°F10.2°C 40.6°F4.8°C 69% Calm Calm -- 30.16 in1021.3 mb 0.00 in0.0 mm 0.00 in0.0 mm 0.00 in0.0 mm
12:40 AM 50.4°F10.2°C 40.6°F4.8°C 69% 0.1 mph NNE0.2 kmh NNE 1.6 mph2.6 kmh 30.16 in1021.3 mb 0.00 in0.0 mm 0.00 in0.0 mm 0.00 in0.0 mm
12:45 AM 50.2°F10.1°C 40.8°F4.9°C 70% Calm Calm -- 30.16 in1021.3 mb 0.00 in0.0 mm 0.00 in0.0 mm 0.00 in0.0 mm
12:50 AM 49.8°F9.9°C 40.4°F4.7°C 70% Calm Calm -- 30.16 in1021.3 mb 0.00 in0.0 mm 0.00 in0.0 mm 0.00 in0.0 mm
12:55 AM 49.8°F9.9°C 40.4°F4.7°C 70% Calm Calm -- 30.15 in1021.0 mb 0.00 in0.0 mm 0.00 in0.0 mm 0.00 in0.0 mm
01:00 AM 49.6°F9.8°C 40.3°F4.6°C 70% 0.4 mph NNE0.6 kmh NNE 1.3 mph2.1 kmh 30.15 in1021.0 mb 0.00 in0.0 mm 0.00 in0.0 mm 0.00 in0.0 mm
01:05 AM 49.6°F9.8°C 40.3°F4.6°C 70% 0.4 mph NNE0.6 kmh NNE 1.3 mph2.1 kmh 30.16 in1021.3 mb 0.00 in0.0 mm 0.00 in0.0 mm 0.00 in0.0 mm
01:10 AM 49.6°F9.8°C 40.3°F4.6°C 70% Calm Calm 0.7 mph1.1 kmh 30.15 in1021.0 mb 0.00 in0.0 mm 0.00 in0.0 mm 0.00 in0.0 mm
01:15 AM 49.6°F9.8°C 40.3°F4.6°C 70% Calm Calm -- 30.15 in1021.0 mb 0.00 in0.0 mm 0.00 in0.0 mm 0.00 in0.0 mm
01:20 AM 49.6°F9.8°C 40.6°F4.8°C 71% Calm Calm -- 30.15 in1021.0 mb 0.00 in0.0 mm 0.00 in0.0 mm 0.00 in0.0 mm
01:25 AM 49.6°F9.8°C 40.6°F4.8°C 71% 0.1 mph NNE0.2 kmh NNE 0.9 mph1.4 kmh 30.15 in1021.0 mb 0.00 in0.0 mm 0.00 in0.0 mm 0.00 in0.0 mm
01:30 AM 49.6°F9.8°C 41.0°F5.0°C 72% 0.4 mph NNE0.6 kmh NNE 0.9 mph1.4 kmh 30.15 in1021.0 mb 0.00 in0.0 mm 0.00 in0.0 mm 0.00 in0.0 mm
01:35 AM 49.6°F9.8°C 41.0°F5.0°C 72% 0.3 mph NNE0.5 kmh NNE 0.9 mph1.4 kmh 30.15 in1021.0 mb 0.00 in0.0 mm 0.00 in0.0 mm 0.00 in0.0 mm
01:37 AM 49.6°F9.8°C 41.0°F5.0°C 72% Calm Calm -- 30.15 in1021.0 mb 0.00 in0.0 mm 0.00 in0.0 mm 0.00 in0.0 mm
01:40 AM 49.6°F9.8°C 41.0°F5.0°C 72% Calm Calm -- 30.15 in1021.0 mb 0.00 in0.0 mm 0.00 in0.0 mm 0.00 in0.0 mm
01:45 AM 49.6°F9.8°C 41.0°F5.0°C 72% 0.2 mph NNE0.3 kmh NNE 1.3 mph2.1 kmh 30.14 in1020.7 mb 0.00 in0.0 mm 0.00 in0.0 mm 0.00 in0.0 mm
01:50 AM 49.6°F9.8°C 41.0°F5.0°C 72% 0.6 mph NNE1.0 kmh NNE 1.3 mph2.1 kmh 30.14 in1020.7 mb 0.00 in0.0 mm 0.00 in0.0 mm 0.00 in0.0 mm
01:55 AM 49.5°F9.7°C 40.8°F4.9°C 72% 0.4 mph NNE0.6 kmh NNE 1.3 mph2.1 kmh 30.14 in1020.7 mb 0.00 in0.0 mm 0.00 in0.0 mm 0.00 in0.0 mm
02:05 AM 49.3°F9.6°C 40.6°F4.8°C 72% Calm Calm -- 30.14 in1020.7 mb 0.00 in0.0 mm 0.00 in0.0 mm 0.00 in0.0 mm
02:10 AM 49.1°F9.5°C 40.8°F4.9°C 73% 0.2 mph NNE0.3 kmh NNE 2.2 mph3.5 kmh 30.14 in1020.7 mb 0.00 in0.0 mm 0.00 in0.0 mm 0.00 in0.0 mm
02:15 AM 49.1°F9.5°C 40.8°F4.9°C 73% 0.9 mph NNE1.4 kmh NNE 2.2 mph3.5 kmh 30.14 in1020.7 mb 0.00 in0.0 mm 0.00 in0.0 mm 0.00 in0.0 mm
02:20 AM 49.1°F9.5°C 40.8°F4.9°C 73% 1.3 mph NNE2.1 kmh NNE 2.5 mph4.0 kmh 30.14 in1020.7 mb 0.00 in0.0 mm 0.00 in0.0 mm 0.00 in0.0 mm
02:25 AM 49.1°F9.5°C 40.8°F4.9°C 73% 1.8 mph SSW2.9 kmh SSW 2.5 mph4.0 kmh 30.13 in1020.3 mb 0.00 in0.0 mm 0.00 in0.0 mm 0.00 in0.0 mm
02:30 AM 48.9°F9.4°C 40.6°F4.8°C 73% 1.5 mph SSW2.4 kmh SSW 2.5 mph4.0 kmh 30.13 in1020.3 mb 0.00 in0.0 mm 0.00 in0.0 mm 0.00 in0.0 mm
02:35 AM 48.9°F9.4°C 40.6°F4.8°C 73% 0.3 mph SSW0.5 kmh SSW 2.5 mph4.0 kmh 30.13 in1020.3 mb 0.00 in0.0 mm 0.00 in0.0 mm 0.00 in0.0 mm
02:37 AM 48.9°F9.4°C 40.6°F4.8°C 73% Calm Calm -- 30.13 in1020.3 mb 0.00 in0.0 mm 0.00 in0.0 mm 0.00 in0.0 mm
02:40 AM 48.7°F9.3°C 40.5°F4.7°C 73% Calm Calm -- 30.13 in1020.3 mb 0.00 in0.0 mm 0.00 in0.0 mm 0.00 in0.0 mm
02:45 AM 48.7°F9.3°C 40.5°F4.7°C 73% Calm Calm -- 30.13 in1020.3 mb 0.00 in0.0 mm 0.00 in0.0 mm 0.00 in0.0 mm
02:50 AM 48.6°F9.2°C 40.6°F4.8°C 74% Calm Calm -- 30.12 in1020.0 mb 0.00 in0.0 mm 0.00 in0.0 mm 0.00 in0.0 mm
02:55 AM 48.6°F9.2°C 40.6°F4.8°C 74% Calm Calm -- 30.12 in1020.0 mb 0.00 in0.0 mm 0.00 in0.0 mm 0.00 in0.0 mm
03:00 AM 48.6°F9.2°C 40.6°F4.8°C 74% Calm Calm -- 30.12 in1020.0 mb 0.00 in0.0 mm 0.00 in0.0 mm 0.00 in0.0 mm
03:05 AM 48.4°F9.1°C 40.5°F4.7°C 74% Calm Calm -- 30.12 in1020.0 mb 0.00 in0.0 mm 0.00 in0.0 mm 0.00 in0.0 mm
03:10 AM 48.4°F9.1°C 40.5°F4.7°C 74% Calm Calm -- 30.12 in1020.0 mb 0.00 in0.0 mm 0.00 in0.0 mm 0.00 in0.0 mm
03:15 AM 48.4°F9.1°C 40.5°F4.7°C 74% Calm Calm -- 30.11 in1019.6 mb 0.00 in0.0 mm 0.00 in0.0 mm 0.00 in0.0 mm
03:20 AM 48.4°F9.1°C 40.8°F4.9°C 75% Calm Calm 0.7 mph1.1 kmh 30.11 in1019.6 mb 0.00 in0.0 mm 0.00 in0.0 mm 0.00 in0.0 mm
03:25 AM 48.4°F9.1°C 40.8°F4.9°C 75% 0.4 mph NNE0.6 kmh NNE 1.3 mph2.1 kmh 30.11 in1019.6 mb 0.00 in0.0 mm 0.00 in0.0 mm 0.00 in0.0 mm
03:30 AM 48.2°F9.0°C 40.6°F4.8°C 75% 0.4 mph NNE0.6 kmh NNE 1.3 mph2.1 kmh 30.12 in1020.0 mb 0.00 in0.0 mm 0.00 in0.0 mm 0.00 in0.0 mm
03:35 AM 48.2°F9.0°C 40.6°F4.8°C 75% Calm Calm -- 30.12 in1020.0 mb 0.00 in0.0 mm 0.00 in0.0 mm 0.00 in0.0 mm
03:37 AM 48.2°F9.0°C 40.6°F4.8°C 75% Calm Calm -- 30.12 in1020.0 mb 0.00 in0.0 mm 0.00 in0.0 mm 0.00 in0.0 mm
03:40 AM 48.2°F9.0°C 40.6°F4.8°C 75% 0.3 mph NE0.5 kmh NE 1.3 mph2.1 kmh 30.11 in1019.6 mb 0.00 in0.0 mm 0.00 in0.0 mm 0.00 in0.0 mm
03:45 AM 48.2°F9.0°C 40.6°F4.8°C 75% 0.3 mph NE0.5 kmh NE 1.3 mph2.1 kmh 30.11 in1019.6 mb 0.00 in0.0 mm 0.00 in0.0 mm 0.00 in0.0 mm
03:50 AM 48.0°F8.9°C 40.5°F4.7°C 75% Calm Calm -- 30.11 in1019.6 mb 0.00 in0.0 mm 0.00 in0.0 mm 0.00 in0.0 mm
03:55 AM 48.0°F8.9°C 40.5°F4.7°C 75% Calm Calm -- 30.11 in1019.6 mb 0.00 in0.0 mm 0.00 in0.0 mm 0.00 in0.0 mm
04:00 AM 47.8°F8.8°C 40.3°F4.6°C 75% Calm Calm -- 30.11 in1019.6 mb 0.00 in0.0 mm 0.00 in0.0 mm 0.00 in0.0 mm
04:05 AM 47.8°F8.8°C 40.3°F4.6°C 75% Calm Calm -- 30.11 in1019.6 mb 0.00 in0.0 mm 0.00 in0.0 mm 0.00 in0.0 mm
04:10 AM 47.5°F8.6°C 39.9°F4.4°C 75% Calm Calm -- 30.11 in1019.6 mb 0.00 in0.0 mm 0.00 in0.0 mm 0.00 in0.0 mm
04:15 AM 47.5°F8.6°C 39.9°F4.4°C 75% Calm Calm -- 30.10 in1019.3 mb 0.00 in0.0 mm 0.00 in0.0 mm 0.00 in0.0 mm
04:20 AM 47.5°F8.6°C 39.9°F4.4°C 75% Calm Calm -- 30.10 in1019.3 mb 0.00 in0.0 mm 0.00 in0.0 mm 0.00 in0.0 mm
04:25 AM 47.5°F8.6°C 40.3°F4.6°C 76% Calm Calm -- 30.10 in1019.3 mb 0.00 in0.0 mm 0.00 in0.0 mm 0.00 in0.0 mm
04:30 AM 47.5°F8.6°C 40.3°F4.6°C 76% Calm Calm -- 30.10 in1019.3 mb 0.00 in0.0 mm 0.00 in0.0 mm 0.00 in0.0 mm
04:35 AM 46.9°F8.3°C 39.8°F4.3°C 76% Calm Calm -- 30.10 in1019.3 mb 0.00 in0.0 mm 0.00 in0.0 mm 0.00 in0.0 mm
04:37 AM 46.9°F8.3°C 39.8°F4.3°C 76% Calm Calm -- 30.10 in1019.3 mb 0.00 in0.0 mm 0.00 in0.0 mm 0.00 in0.0 mm
04:40 AM 46.9°F8.3°C 39.8°F4.3°C 76% 0.1 mph NE0.2 kmh NE 1.1 mph1.8 kmh 30.10 in1019.3 mb 0.00 in0.0 mm 0.00 in0.0 mm 0.00 in0.0 mm
04:45 AM 46.9°F8.3°C 39.8°F4.3°C 76% 0.2 mph NE0.3 kmh NE 1.1 mph1.8 kmh 30.10 in1019.3 mb 0.00 in0.0 mm 0.00 in0.0 mm 0.00 in0.0 mm
04:50 AM 46.9°F8.3°C 39.8°F4.3°C 76% 0.4 mph NNW0.6 kmh NNW 1.1 mph1.8 kmh 30.10 in1019.3 mb 0.00 in0.0 mm 0.00 in0.0 mm 0.00 in0.0 mm
04:55 AM 46.9°F8.3°C 39.8°F4.3°C 76% 0.2 mph NW0.3 kmh NW 1.1 mph1.8 kmh 30.10 in1019.3 mb 0.00 in0.0 mm 0.00 in0.0 mm 0.00 in0.0 mm
05:00 AM 46.9°F8.3°C 40.1°F4.5°C 77% Calm Calm -- 30.10 in1019.3 mb 0.00 in0.0 mm 0.00 in0.0 mm 0.00 in0.0 mm
05:05 AM 46.9°F8.3°C 40.1°F4.5°C 77% Calm Calm -- 30.10 in1019.3 mb 0.00 in0.0 mm 0.00 in0.0 mm 0.00 in0.0 mm
05:10 AM 46.9°F8.3°C 40.1°F4.5°C 77% Calm Calm -- 30.10 in1019.3 mb 0.00 in0.0 mm 0.00 in0.0 mm 0.00 in0.0 mm
05:15 AM 46.9°F8.3°C 40.1°F4.5°C 77% Calm Calm -- 30.10 in1019.3 mb 0.00 in0.0 mm 0.00 in0.0 mm 0.00 in0.0 mm
05:20 AM 47.1°F8.4°C 40.3°F4.6°C 77% Calm Calm -- 30.10 in1019.3 mb 0.00 in0.0 mm 0.00 in0.0 mm 0.00 in0.0 mm
05:25 AM 47.1°F8.4°C 40.3°F4.6°C 77% Calm Calm -- 30.10 in1019.3 mb 0.00 in0.0 mm 0.00 in0.0 mm 0.00 in0.0 mm
05:30 AM 47.1°F8.4°C 40.3°F4.6°C 77% Calm Calm -- 30.10 in1019.3 mb 0.00 in0.0 mm 0.00 in0.0 mm 0.00 in0.0 mm
05:35 AM 46.9°F8.3°C 40.1°F4.5°C 77% 1.0 mph ENE1.6 kmh ENE 2.2 mph3.5 kmh 30.10 in1019.3 mb 0.00 in0.0 mm 0.00 in0.0 mm 0.00 in0.0 mm
05:37 AM 46.9°F8.3°C 40.1°F4.5°C 77% 2.2 mph ENE3.5 kmh ENE 2.2 mph3.5 kmh 30.10 in1019.3 mb 0.00 in0.0 mm 0.00 in0.0 mm 0.00 in0.0 mm
05:40 AM 46.9°F8.3°C 40.1°F4.5°C 77% 2.1 mph ENE3.4 kmh ENE 2.2 mph3.5 kmh 30.10 in1019.3 mb 0.00 in0.0 mm 0.00 in0.0 mm 0.00 in0.0 mm
05:45 AM 46.9°F8.3°C 40.1°F4.5°C 77% 1.5 mph ENE2.4 kmh ENE 2.2 mph3.5 kmh 30.11 in1019.6 mb 0.00 in0.0 mm 0.00 in0.0 mm 0.00 in0.0 mm
05:50 AM 47.1°F8.4°C 40.3°F4.6°C 77% 0.5 mph ENE0.8 kmh ENE 2.2 mph3.5 kmh 30.11 in1019.6 mb 0.00 in0.0 mm 0.00 in0.0 mm 0.00 in0.0 mm
05:55 AM 46.9°F8.3°C 40.4°F4.7°C 78% 0.9 mph NNE1.4 kmh NNE 4.0 mph6.4 kmh 30.10 in1019.3 mb 0.00 in0.0 mm 0.00 in0.0 mm 0.00 in0.0 mm
06:00 AM 46.9°F8.3°C 40.4°F4.7°C 78% 2.1 mph NNE3.4 kmh NNE 4.0 mph6.4 kmh 30.10 in1019.3 mb 0.00 in0.0 mm 0.00 in0.0 mm 0.00 in0.0 mm
06:05 AM 46.9°F8.3°C 40.4°F4.7°C 78% 2.3 mph NNE3.7 kmh NNE 4.0 mph6.4 kmh 30.10 in1019.3 mb 0.00 in0.0 mm 0.00 in0.0 mm 0.00 in0.0 mm
06:10 AM 47.1°F8.4°C 40.6°F4.8°C 78% 2.1 mph NNE3.4 kmh NNE 2.2 mph3.5 kmh 30.10 in1019.3 mb 0.00 in0.0 mm 0.00 in0.0 mm 0.00 in0.0 mm
06:15 AM 47.1°F8.4°C 40.6°F4.8°C 78% 1.6 mph NNE2.6 kmh NNE 2.2 mph3.5 kmh 30.10 in1019.3 mb 0.00 in0.0 mm 0.00 in0.0 mm 0.00 in0.0 mm
06:20 AM 47.1°F8.4°C 40.6°F4.8°C 78% 0.8 mph NNE1.3 kmh NNE 1.6 mph2.6 kmh 30.10 in1019.3 mb 0.00 in0.0 mm 0.00 in0.0 mm 0.00 in0.0 mm
06:25 AM 47.3°F8.5°C 40.8°F4.9°C 78% 0.6 mph NNE1.0 kmh NNE 2.0 mph3.2 kmh 30.10 in1019.3 mb 0.00 in0.0 mm 0.00 in0.0 mm 0.00 in0.0 mm
06:30 AM 47.3°F8.5°C 40.8°F4.9°C 78% 1.7 mph NNE2.7 kmh NNE 2.9 mph4.7 kmh 30.10 in1019.3 mb 0.00 in0.0 mm 0.00 in0.0 mm 0.00 in0.0 mm
06:35 AM 47.3°F8.5°C 41.1°F5.1°C 79% 1.6 mph NNE2.6 kmh NNE 2.9 mph4.7 kmh 30.10 in1019.3 mb 0.00 in0.0 mm 0.00 in0.0 mm 0.00 in0.0 mm
06:37 AM 47.5°F8.6°C 41.3°F5.2°C 79% 0.7 mph N1.1 kmh N 0.7 mph1.1 kmh 30.10 in1019.3 mb 0.00 in0.0 mm 0.00 in0.0 mm 0.00 in0.0 mm
06:40 AM 47.5°F8.6°C 41.3°F5.2°C 79% 0.5 mph NNE0.8 kmh NNE 2.9 mph4.7 kmh 30.10 in1019.3 mb 0.00 in0.0 mm 0.00 in0.0 mm 0.00 in0.0 mm
06:45 AM 47.5°F8.6°C 41.3°F5.2°C 79% 0.1 mph N0.2 kmh N 0.7 mph1.1 kmh 30.10 in1019.3 mb 0.00 in0.0 mm 0.00 in0.0 mm 0.00 in0.0 mm
06:50 AM 47.5°F8.6°C 41.3°F5.2°C 79% Calm Calm -- 30.10 in1019.3 mb 0.00 in0.0 mm 0.00 in0.0 mm 0.00 in0.0 mm
06:55 AM 47.3°F8.5°C 41.1°F5.1°C 79% Calm Calm -- 30.10 in1019.3 mb 0.00 in0.0 mm 0.00 in0.0 mm 0.00 in0.0 mm
07:00 AM 47.5°F8.6°C 41.3°F5.2°C 79% Calm Calm -- 30.10 in1019.3 mb 0.00 in0.0 mm 0.00 in0.0 mm 0.00 in0.0 mm
07:05 AM 47.5°F8.6°C 41.3°F5.2°C 79% Calm Calm -- 30.10 in1019.3 mb 0.00 in0.0 mm 0.00 in0.0 mm 0.00 in0.0 mm
07:10 AM 47.5°F8.6°C 41.3°F5.2°C 79% Calm Calm -- 30.10 in1019.3 mb 0.00 in0.0 mm 0.00 in0.0 mm 0.00 in0.0 mm
07:15 AM 48.0°F8.9°C 41.8°F5.4°C 79% Calm Calm -- 30.10 in1019.3 mb 0.00 in0.0 mm 0.00 in0.0 mm 0.00 in0.0 mm
07:20 AM 48.4°F9.1°C 42.2°F5.7°C 79% 0.1 mph SSW0.2 kmh SSW 0.7 mph1.1 kmh 30.10 in1019.3 mb 0.00 in0.0 mm 0.00 in0.0 mm 0.00 in0.0 mm
07:25 AM 48.9°F9.4°C 43.0°F6.1°C 80% 0.5 mph S0.8 kmh S 1.6 mph2.6 kmh 30.10 in1019.3 mb 0.00 in0.0 mm 0.00 in0.0 mm 0.00 in0.0 mm
07:30 AM 49.3°F9.6°C 43.4°F6.3°C 80% 0.4 mph S0.6 kmh S 1.6 mph2.6 kmh 30.10 in1019.3 mb 0.00 in0.0 mm 0.00 in0.0 mm 0.00 in0.0 mm
07:35 AM 49.3°F9.6°C 43.4°F6.3°C 80% Calm Calm -- 30.10 in1019.3 mb 0.00 in0.0 mm 0.00 in0.0 mm 0.00 in0.0 mm
07:37 AM 49.3°F9.6°C 43.4°F6.3°C 80% Calm Calm -- 30.09 in1019.0 mb 0.00 in0.0 mm 0.00 in0.0 mm 0.00 in0.0 mm
07:40 AM 49.3°F9.6°C 43.4°F6.3°C 80% Calm Calm -- 30.10 in1019.3 mb 0.00 in0.0 mm 0.00 in0.0 mm 0.00 in0.0 mm
07:45 AM 50.0°F10.0°C 44.1°F6.7°C 80% Calm Calm -- 30.09 in1019.0 mb 0.00 in0.0 mm 0.00 in0.0 mm 0.00 in0.0 mm
07:50 AM 49.8°F9.9°C 43.9°F6.6°C 80% Calm Calm -- 30.09 in1019.0 mb 0.00 in0.0 mm 0.00 in0.0 mm 0.00 in0.0 mm
07:55 AM 50.4°F10.2°C 44.4°F6.9°C 80% Calm Calm -- 30.09 in1019.0 mb 0.00 in0.0 mm 0.00 in0.0 mm 0.00 in0.0 mm
08:00 AM 50.4°F10.2°C 44.4°F6.9°C 80% Calm Calm -- 30.08 in1018.6 mb 0.00 in0.0 mm 0.00 in0.0 mm 0.00 in0.0 mm
08:05 AM 50.4°F10.2°C 44.4°F6.9°C 80% Calm Calm -- 30.09 in1019.0 mb 0.00 in0.0 mm 0.00 in0.0 mm 0.00 in0.0 mm
08:10 AM 50.4°F10.2°C 44.4°F6.9°C 80% Calm Calm -- 30.08 in1018.6 mb 0.00 in0.0 mm 0.00 in0.0 mm 0.00 in0.0 mm
08:15 AM 51.1°F10.6°C 45.1°F7.3°C 80% 0.2 mph S0.3 kmh S 1.8 mph2.9 kmh 30.09 in1019.0 mb 0.00 in0.0 mm 0.00 in0.0 mm 0.00 in0.0 mm
08:20 AM 51.3°F10.7°C 45.3°F7.4°C 80% 0.9 mph S1.4 kmh S 1.8 mph2.9 kmh 30.09 in1019.0 mb 0.00 in0.0 mm 0.00 in0.0 mm 0.00 in0.0 mm
08:25 AM 51.3°F10.7°C 45.3°F7.4°C 80% 0.8 mph S1.3 kmh S 1.8 mph2.9 kmh 30.09 in1019.0 mb 0.00 in0.0 mm 0.00 in0.0 mm 0.00 in0.0 mm
08:30 AM 51.3°F10.7°C 45.3°F7.4°C 80% 0.1 mph S0.2 kmh S 1.3 mph2.1 kmh 30.10 in1019.3 mb 0.00 in0.0 mm 0.00 in0.0 mm 0.00 in0.0 mm
08:35 AM 51.6°F10.9°C 45.7°F7.6°C 80% Calm Calm -- 30.09 in1019.0 mb 0.00 in0.0 mm 0.00 in0.0 mm 0.00 in0.0 mm
08:37 AM 51.6°F10.9°C 45.7°F7.6°C 80% Calm Calm -- 30.09 in1019.0 mb 0.00 in0.0 mm 0.00 in0.0 mm 0.00 in0.0 mm
08:40 AM 51.4°F10.8°C 45.5°F7.5°C 80% Calm Calm -- 30.09 in1019.0 mb 0.00 in0.0 mm 0.00 in0.0 mm 0.00 in0.0 mm
08:45 AM 51.4°F10.8°C 45.5°F7.5°C 80% Calm Calm -- 30.09 in1019.0 mb 0.00 in0.0 mm 0.00 in0.0 mm 0.00 in0.0 mm
08:50 AM 51.4°F10.8°C 45.5°F7.5°C 80% Calm Calm -- 30.10 in1019.3 mb 0.00 in0.0 mm 0.00 in0.0 mm 0.00 in0.0 mm
08:55 AM 51.4°F10.8°C 45.5°F7.5°C 80% Calm Calm -- 30.09 in1019.0 mb 0.00 in0.0 mm 0.00 in0.0 mm 0.00 in0.0 mm
09:00 AM 51.4°F10.8°C 45.5°F7.5°C 80% Calm Calm -- 30.09 in1019.0 mb 0.00 in0.0 mm 0.00 in0.0 mm 0.00 in0.0 mm
09:05 AM 51.4°F10.8°C 45.5°F7.5°C 80% Calm Calm -- 30.09 in1019.0 mb 0.00 in0.0 mm 0.00 in0.0 mm 0.00 in0.0 mm
09:10 AM 51.6°F10.9°C 45.7°F7.6°C 80% Calm Calm -- 30.09 in1019.0 mb 0.00 in0.0 mm 0.00 in0.0 mm 0.00 in0.0 mm
09:15 AM 52.0°F11.1°C 46.0°F7.8°C 80% 0.1 mph S0.2 kmh S 0.9 mph1.4 kmh 30.09 in1019.0 mb 0.00 in0.0 mm 0.00 in0.0 mm 0.00 in0.0 mm
09:20 AM 52.0°F11.1°C 46.0°F7.8°C 80% 0.8 mph SSW1.3 kmh SSW 1.6 mph2.6 kmh 30.09 in1019.0 mb 0.00 in0.0 mm 0.00 in0.0 mm 0.00 in0.0 mm
09:25 AM 52.3°F11.3°C 46.4°F8.0°C 80% 1.0 mph S1.6 kmh S 1.6 mph2.6 kmh 30.09 in1019.0 mb 0.00 in0.0 mm 0.00 in0.0 mm 0.00 in0.0 mm
09:30 AM 52.7°F11.5°C 46.7°F8.2°C 80% 0.5 mph S0.8 kmh S 1.6 mph2.6 kmh 30.09 in1019.0 mb 0.00 in0.0 mm 0.00 in0.0 mm 0.00 in0.0 mm
09:35 AM 52.9°F11.6°C 46.9°F8.3°C 80% 0.2 mph S0.3 kmh S 1.1 mph1.8 kmh 30.09 in1019.0 mb 0.00 in0.0 mm 0.00 in0.0 mm 0.00 in0.0 mm
09:37 AM 53.2°F11.8°C 47.6°F8.7°C 81% Calm Calm -- 30.09 in1019.0 mb 0.00 in0.0 mm 0.00 in0.0 mm 0.00 in0.0 mm
09:40 AM 53.2°F11.8°C 47.6°F8.7°C 81% Calm Calm -- 30.09 in1019.0 mb 0.00 in0.0 mm 0.00 in0.0 mm 0.00 in0.0 mm
09:45 AM 53.8°F12.1°C 48.1°F8.9°C 81% Calm Calm -- 30.09 in1019.0 mb 0.00 in0.0 mm 0.00 in0.0 mm 0.00 in0.0 mm
09:50 AM 53.8°F12.1°C 48.1°F8.9°C 81% Calm Calm -- 30.09 in1019.0 mb 0.00 in0.0 mm 0.00 in0.0 mm 0.00 in0.0 mm
09:55 AM 53.8°F12.1°C 48.1°F8.9°C 81% Calm Calm 1.3 mph2.1 kmh 30.09 in1019.0 mb 0.00 in0.0 mm 0.00 in0.0 mm 0.00 in0.0 mm
10:00 AM 54.9°F12.7°C 48.8°F9.3°C 80% 0.6 mph S1.0 kmh S 1.3 mph2.1 kmh 30.09 in1019.0 mb 0.00 in0.0 mm 0.00 in0.0 mm 0.00 in0.0 mm
10:05 AM 55.0°F12.8°C 49.0°F9.4°C 80% 0.5 mph S0.8 kmh S 1.3 mph2.1 kmh 30.08 in1018.6 mb 0.00 in0.0 mm 0.00 in0.0 mm 0.00 in0.0 mm
10:10 AM 55.6°F13.1°C 49.5°F9.7°C 80% 0.3 mph S0.5 kmh S 1.6 mph2.6 kmh 30.09 in1019.0 mb 0.00 in0.0 mm 0.00 in0.0 mm 0.00 in0.0 mm
10:15 AM 55.9°F13.3°C 49.9°F9.9°C 80% 0.6 mph S1.0 kmh S 1.6 mph2.6 kmh 30.08 in1018.6 mb 0.00 in0.0 mm 0.00 in0.0 mm 0.00 in0.0 mm
10:20 AM 55.9°F13.3°C 49.9°F9.9°C 80% 0.2 mph SSW0.3 kmh SSW 1.1 mph1.8 kmh 30.09 in1019.0 mb 0.00 in0.0 mm 0.00 in0.0 mm 0.00 in0.0 mm
10:25 AM 56.5°F13.6°C 50.0°F10.0°C 79% 0.6 mph SSW1.0 kmh SSW 1.3 mph2.1 kmh 30.08 in1018.6 mb 0.00 in0.0 mm 0.00 in0.0 mm 0.00 in0.0 mm
10:30 AM 56.5°F13.6°C 49.7°F9.8°C 78% 1.4 mph SSW2.3 kmh SSW 2.0 mph3.2 kmh 30.07 in1018.3 mb 0.00 in0.0 mm 0.00 in0.0 mm 0.00 in0.0 mm
10:35 AM 57.4°F14.1°C 50.2°F10.1°C 77% 1.6 mph SW2.6 kmh SW 2.0 mph3.2 kmh 30.07 in1018.3 mb 0.00 in0.0 mm 0.00 in0.0 mm 0.00 in0.0 mm
10:37 AM 57.7°F14.3°C 50.6°F10.3°C 77% 3.4 mph W5.5 kmh W 3.4 mph5.5 kmh 30.07 in1018.3 mb 0.00 in0.0 mm 0.00 in0.0 mm 0.00 in0.0 mm
10:40 AM 58.3°F14.6°C 50.7°F10.4°C 76% 2.1 mph W3.4 kmh W 3.4 mph5.5 kmh 30.07 in1018.3 mb 0.00 in0.0 mm 0.00 in0.0 mm 0.00 in0.0 mm
10:45 AM 58.8°F14.9°C 50.9°F10.5°C 75% 2.5 mph WNW4.0 kmh WNW 3.4 mph5.5 kmh 30.07 in1018.3 mb 0.00 in0.0 mm 0.00 in0.0 mm 0.00 in0.0 mm
10:50 AM 59.2°F15.1°C 51.3°F10.7°C 75% 2.0 mph NW3.2 kmh NW 3.1 mph5.0 kmh 30.06 in1017.9 mb 0.00 in0.0 mm 0.00 in0.0 mm 0.00 in0.0 mm
10:55 AM 59.7°F15.4°C 51.4°F10.8°C 74% 1.2 mph W1.9 kmh W 1.6 mph2.6 kmh 30.06 in1017.9 mb 0.00 in0.0 mm 0.00 in0.0 mm 0.00 in0.0 mm
11:00 AM 59.7°F15.4°C 51.0°F10.6°C 73% 0.7 mph WSW1.1 kmh WSW 2.5 mph4.0 kmh 30.06 in1017.9 mb 0.00 in0.0 mm 0.00 in0.0 mm 0.00 in0.0 mm
11:05 AM 60.6°F15.9°C 51.2°F10.7°C 71% 1.1 mph W1.8 kmh W 2.5 mph4.0 kmh 30.06 in1017.9 mb 0.00 in0.0 mm 0.00 in0.0 mm 0.00 in0.0 mm
11:10 AM 61.2°F16.2°C 51.3°F10.7°C 70% 1.0 mph W1.6 kmh W 3.6 mph5.8 kmh 30.05 in1017.6 mb 0.00 in0.0 mm 0.00 in0.0 mm 0.00 in0.0 mm
11:15 AM 61.5°F16.4°C 51.6°F10.9°C 70% 1.0 mph NW1.6 kmh NW 3.6 mph5.8 kmh 30.06 in1017.9 mb 0.00 in0.0 mm 0.00 in0.0 mm 0.00 in0.0 mm
11:20 AM 61.7°F16.5°C 51.4°F10.8°C 69% 1.2 mph NW1.9 kmh NW 3.6 mph5.8 kmh 30.06 in1017.9 mb 0.00 in0.0 mm 0.00 in0.0 mm 0.00 in0.0 mm
11:25 AM 62.1°F16.7°C 51.8°F11.0°C 69% 1.4 mph WSW2.3 kmh WSW 2.2 mph3.5 kmh 30.05 in1017.6 mb 0.00 in0.0 mm 0.00 in0.0 mm 0.00 in0.0 mm
11:30 AM 62.1°F16.7°C 51.8°F11.0°C 69% 2.1 mph WSW3.4 kmh WSW 2.2 mph3.5 kmh 30.06 in1017.9 mb 0.00 in0.0 mm 0.00 in0.0 mm 0.00 in0.0 mm
11:35 AM 62.8°F17.1°C 52.5°F11.4°C 69% 2.7 mph SW4.3 kmh SW 4.7 mph7.6 kmh 30.05 in1017.6 mb 0.00 in0.0 mm 0.00 in0.0 mm 0.00 in0.0 mm
11:37 AM 63.0°F17.2°C 52.6°F11.4°C 69% 3.1 mph SW5.0 kmh SW 3.1 mph5.0 kmh 30.05 in1017.6 mb 0.00 in0.0 mm 0.00 in0.0 mm 0.00 in0.0 mm
11:40 AM 63.1°F17.3°C 52.8°F11.6°C 69% 2.4 mph SW3.9 kmh SW 4.7 mph7.6 kmh 30.05 in1017.6 mb 0.00 in0.0 mm 0.00 in0.0 mm 0.00 in0.0 mm
11:45 AM 63.3°F17.4°C 53.0°F11.7°C 69% 1.6 mph SW2.6 kmh SW 4.7 mph7.6 kmh 30.05 in1017.6 mb 0.00 in0.0 mm 0.00 in0.0 mm 0.00 in0.0 mm
11:50 AM 63.7°F17.6°C 52.9°F11.6°C 68% 1.3 mph SSW2.1 kmh SSW 1.8 mph2.9 kmh 30.05 in1017.6 mb 0.00 in0.0 mm 0.00 in0.0 mm 0.00 in0.0 mm
11:55 AM 64.0°F17.8°C 53.7°F12.1°C 69% 1.4 mph SW2.3 kmh SW 4.5 mph7.2 kmh 30.05 in1017.6 mb 0.00 in0.0 mm 0.00 in0.0 mm 0.00 in0.0 mm
12:00 PM 64.2°F17.9°C 53.8°F12.1°C 69% 2.1 mph S3.4 kmh S 4.5 mph7.2 kmh 30.04 in1017.3 mb 0.00 in0.0 mm 0.00 in0.0 mm 0.00 in0.0 mm
12:05 PM 64.2°F17.9°C 53.4°F11.9°C 68% 2.8 mph SSW4.5 kmh SSW 4.5 mph7.2 kmh 30.04 in1017.3 mb 0.00 in0.0 mm 0.00 in0.0 mm 0.00 in0.0 mm
12:10 PM 64.4°F18.0°C 53.6°F12.0°C 68% 3.1 mph SSW5.0 kmh SSW 4.0 mph6.4 kmh 30.04 in1017.3 mb 0.00 in0.0 mm 0.00 in0.0 mm 0.00 in0.0 mm
12:15 PM 64.6°F18.1°C 53.4°F11.9°C 67% 3.2 mph S5.1 kmh S 4.0 mph6.4 kmh 30.04 in1017.3 mb 0.00 in0.0 mm 0.00 in0.0 mm 0.00 in0.0 mm
12:20 PM 64.6°F18.1°C 53.0°F11.7°C 66% 2.4 mph S3.9 kmh S 3.8 mph6.1 kmh 30.04 in1017.3 mb 0.00 in0.0 mm 0.00 in0.0 mm 0.00 in0.0 mm
12:25 PM 64.8°F18.2°C 53.1°F11.7°C 66% 3.0 mph W4.8 kmh W 5.8 mph9.3 kmh 30.04 in1017.3 mb 0.00 in0.0 mm 0.00 in0.0 mm 0.00 in0.0 mm
12:30 PM 64.9°F18.3°C 53.3°F11.8°C 66% 4.2 mph WSW6.8 kmh WSW 6.7 mph10.8 kmh 30.04 in1017.3 mb 0.00 in0.0 mm 0.00 in0.0 mm 0.00 in0.0 mm
12:35 PM 65.1°F18.4°C 53.1°F11.7°C 65% 3.5 mph WSW5.6 kmh WSW 6.7 mph10.8 kmh 30.04 in1017.3 mb 0.00 in0.0 mm 0.00 in0.0 mm 0.00 in0.0 mm
12:37 PM 65.1°F18.4°C 53.5°F11.9°C 66% 4.0 mph SSE6.4 kmh SSE 4.0 mph6.4 kmh 30.03 in1016.9 mb 0.00 in0.0 mm 0.00 in0.0 mm 0.00 in0.0 mm
12:40 PM 65.1°F18.4°C 52.6°F11.4°C 64% 4.3 mph S6.9 kmh S 6.7 mph10.8 kmh 30.04 in1017.3 mb 0.00 in0.0 mm 0.00 in0.0 mm 0.00 in0.0 mm
12:45 PM 65.3°F18.5°C 52.8°F11.6°C 64% 4.7 mph SSE7.6 kmh SSE 6.7 mph10.8 kmh 30.03 in1016.9 mb 0.00 in0.0 mm 0.00 in0.0 mm 0.00 in0.0 mm
12:50 PM 65.3°F18.5°C 52.8°F11.6°C 64% 3.0 mph S4.8 kmh S 6.7 mph10.8 kmh 30.03 in1016.9 mb 0.00 in0.0 mm 0.00 in0.0 mm 0.00 in0.0 mm
12:55 PM 65.7°F18.7°C 52.7°F11.5°C 63% 1.3 mph S2.1 kmh S 1.8 mph2.9 kmh 30.04 in1017.3 mb 0.00 in0.0 mm 0.00 in0.0 mm 0.00 in0.0 mm
01:00 PM 65.8°F18.8°C 52.9°F11.6°C 63% 1.3 mph SSE2.1 kmh SSE 2.7 mph4.3 kmh 30.04 in1017.3 mb 0.00 in0.0 mm 0.00 in0.0 mm 0.00 in0.0 mm
01:05 PM 66.0°F18.9°C 53.1°F11.7°C 63% 2.6 mph S4.2 kmh S 4.3 mph6.9 kmh 30.03 in1016.9 mb 0.00 in0.0 mm 0.00 in0.0 mm 0.00 in0.0 mm
01:10 PM 66.4°F19.1°C 52.5°F11.4°C 61% 3.2 mph S5.1 kmh S 4.7 mph7.6 kmh 30.03 in1016.9 mb 0.00 in0.0 mm 0.00 in0.0 mm 0.00 in0.0 mm
01:15 PM 66.6°F19.2°C 52.7°F11.5°C 61% 4.4 mph S7.1 kmh S 6.3 mph10.1 kmh 30.03 in1016.9 mb 0.00 in0.0 mm 0.00 in0.0 mm 0.00 in0.0 mm
01:20 PM 66.6°F19.2°C 52.7°F11.5°C 61% 6.0 mph SSE9.7 kmh SSE 6.3 mph10.1 kmh 30.03 in1016.9 mb 0.00 in0.0 mm 0.00 in0.0 mm 0.00 in0.0 mm
01:25 PM 66.6°F19.2°C 52.2°F11.2°C 60% 4.4 mph SSE7.1 kmh SSE 6.3 mph10.1 kmh 30.03 in1016.9 mb 0.00 in0.0 mm 0.00 in0.0 mm 0.00 in0.0 mm
01:30 PM 66.0°F18.9°C 52.2°F11.2°C 61% 1.6 mph S2.6 kmh S 6.3 mph10.1 kmh 30.03 in1016.9 mb 0.00 in0.0 mm 0.00 in0.0 mm 0.00 in0.0 mm
01:35 PM 66.0°F18.9°C 52.2°F11.2°C 61% 1.8 mph WSW2.9 kmh WSW 4.3 mph6.9 kmh 30.02 in1016.6 mb 0.00 in0.0 mm 0.00 in0.0 mm 0.00 in0.0 mm
01:37 PM 65.7°F18.7°C 51.8°F11.0°C 61% 2.9 mph SSW4.7 kmh SSW 2.9 mph4.7 kmh 30.02 in1016.6 mb 0.00 in0.0 mm 0.00 in0.0 mm 0.00 in0.0 mm
01:40 PM 65.3°F18.5°C 51.5°F10.8°C 61% 2.9 mph WSW4.7 kmh WSW 4.3 mph6.9 kmh 30.02 in1016.6 mb 0.00 in0.0 mm 0.00 in0.0 mm 0.00 in0.0 mm
01:45 PM 65.1°F18.4°C 51.8°F11.0°C 62% 2.1 mph WSW3.4 kmh WSW 4.3 mph6.9 kmh 30.02 in1016.6 mb 0.00 in0.0 mm 0.00 in0.0 mm 0.00 in0.0 mm
01:50 PM 65.1°F18.4°C 51.8°F11.0°C 62% 2.0 mph SW3.2 kmh SW 2.9 mph4.7 kmh 30.03 in1016.9 mb 0.00 in0.0 mm 0.00 in0.0 mm 0.00 in0.0 mm
01:55 PM 64.8°F18.2°C 51.9°F11.1°C 63% 3.0 mph SW4.8 kmh SW 4.0 mph6.4 kmh 30.03 in1016.9 mb 0.00 in0.0 mm 0.00 in0.0 mm 0.00 in0.0 mm
02:00 PM 64.2°F17.9°C 51.4°F10.8°C 63% 4.5 mph SSW7.2 kmh SSW 8.9 mph14.3 kmh 30.03 in1016.9 mb 0.00 in0.0 mm 0.00 in0.0 mm 0.00 in0.0 mm
02:05 PM 64.2°F17.9°C 51.4°F10.8°C 63% 4.3 mph SSW6.9 kmh SSW 8.9 mph14.3 kmh 30.03 in1016.9 mb 0.00 in0.0 mm 0.00 in0.0 mm 0.00 in0.0 mm
02:10 PM 63.7°F17.6°C 51.3°F10.7°C 64% 2.9 mph SSW4.7 kmh SSW 4.0 mph6.4 kmh 30.03 in1016.9 mb 0.00 in0.0 mm 0.00 in0.0 mm 0.00 in0.0 mm
02:15 PM 63.5°F17.5°C 51.1°F10.6°C 64% 3.3 mph S5.3 kmh S 4.0 mph6.4 kmh 30.03 in1016.9 mb 0.00 in0.0 mm 0.00 in0.0 mm 0.00 in0.0 mm
02:20 PM 63.3°F17.4°C 50.9°F10.5°C 64% 4.2 mph SW6.8 kmh SW 5.4 mph8.7 kmh 30.03 in1016.9 mb 0.00 in0.0 mm 0.00 in0.0 mm 0.00 in0.0 mm
02:25 PM 63.0°F17.2°C 51.0°F10.6°C 65% 3.8 mph W6.1 kmh W 5.4 mph8.7 kmh 30.03 in1016.9 mb 0.00 in0.0 mm 0.00 in0.0 mm 0.00 in0.0 mm
02:30 PM 62.8°F17.1°C 50.8°F10.4°C 65% 4.6 mph W7.4 kmh W 8.9 mph14.3 kmh 30.04 in1017.3 mb 0.00 in0.0 mm 0.00 in0.0 mm 0.00 in0.0 mm
02:35 PM 62.4°F16.9°C 50.5°F10.3°C 65% 5.5 mph WSW8.9 kmh WSW 8.9 mph14.3 kmh 30.04 in1017.3 mb 0.00 in0.0 mm 0.00 in0.0 mm 0.00 in0.0 mm
02:37 PM 62.4°F16.9°C 50.5°F10.3°C 65% 5.1 mph SSW8.2 kmh SSW 5.1 mph8.2 kmh 30.03 in1016.9 mb 0.00 in0.0 mm 0.00 in0.0 mm 0.00 in0.0 mm
02:40 PM 62.4°F16.9°C 50.5°F10.3°C 65% 4.9 mph SW7.9 kmh SW 5.6 mph9.0 kmh 30.03 in1016.9 mb 0.00 in0.0 mm 0.00 in0.0 mm 0.00 in0.0 mm
02:45 PM 62.2°F16.8°C 50.3°F10.2°C 65% 4.9 mph SSW7.9 kmh SSW 5.1 mph8.2 kmh 30.03 in1016.9 mb 0.00 in0.0 mm 0.00 in0.0 mm 0.00 in0.0 mm
02:50 PM 62.2°F16.8°C 50.7°F10.4°C 66% 3.1 mph SW5.0 kmh SW 5.1 mph8.2 kmh 30.03 in1016.9 mb 0.00 in0.0 mm 0.00 in0.0 mm 0.00 in0.0 mm
02:55 PM 61.9°F16.6°C 50.4°F10.2°C 66% 0.8 mph W1.3 kmh W 2.9 mph4.7 kmh 30.03 in1016.9 mb 0.00 in0.0 mm 0.00 in0.0 mm 0.00 in0.0 mm
03:00 PM 61.5°F16.4°C 50.1°F10.1°C 66% 1.4 mph W2.3 kmh W 4.7 mph7.6 kmh 30.03 in1016.9 mb 0.00 in0.0 mm 0.00 in0.0 mm 0.00 in0.0 mm
03:05 PM 61.3°F16.3°C 50.3°F10.2°C 67% 3.5 mph W5.6 kmh W 4.7 mph7.6 kmh 30.03 in1016.9 mb 0.00 in0.0 mm 0.00 in0.0 mm 0.00 in0.0 mm
03:10 PM 61.2°F16.2°C 50.1°F10.1°C 67% 3.6 mph WNW5.8 kmh WNW 4.7 mph7.6 kmh 30.03 in1016.9 mb 0.00 in0.0 mm 0.00 in0.0 mm 0.00 in0.0 mm
03:15 PM 61.2°F16.2°C 50.1°F10.1°C 67% 3.1 mph W5.0 kmh W 4.5 mph7.2 kmh 30.03 in1016.9 mb 0.00 in0.0 mm 0.00 in0.0 mm 0.00 in0.0 mm
03:20 PM 61.0°F16.1°C 49.9°F9.9°C 67% 3.9 mph WSW6.3 kmh WSW 4.5 mph7.2 kmh 30.02 in1016.6 mb 0.00 in0.0 mm 0.00 in0.0 mm 0.00 in0.0 mm
03:25 PM 61.0°F16.1°C 49.9°F9.9°C 67% 5.2 mph W8.4 kmh W 5.8 mph9.3 kmh 30.02 in1016.6 mb 0.00 in0.0 mm 0.00 in0.0 mm 0.00 in0.0 mm
03:30 PM 60.6°F15.9°C 50.4°F10.2°C 69% 7.5 mph W12.1 kmh W 11.6 mph18.7 kmh 30.02 in1016.6 mb 0.00 in0.0 mm 0.00 in0.0 mm 0.00 in0.0 mm
03:35 PM 60.6°F15.9°C 50.8°F10.4°C 70% 9.9 mph WSW15.9 kmh WSW 11.6 mph18.7 kmh 30.02 in1016.6 mb 0.00 in0.0 mm 0.00 in0.0 mm 0.00 in0.0 mm
03:37 PM 60.4°F15.8°C 50.6°F10.3°C 70% 8.9 mph WNW14.3 kmh WNW 8.9 mph14.3 kmh 30.02 in1016.6 mb 0.00 in0.0 mm 0.00 in0.0 mm 0.00 in0.0 mm
03:40 PM 60.3°F15.7°C 50.4°F10.2°C 70% 8.5 mph WSW13.7 kmh WSW 11.6 mph18.7 kmh 30.02 in1016.6 mb 0.00 in0.0 mm 0.00 in0.0 mm 0.00 in0.0 mm
03:45 PM 60.1°F15.6°C 50.3°F10.2°C 70% 6.4 mph WNW10.3 kmh WNW 8.9 mph14.3 kmh 30.02 in1016.6 mb 0.00 in0.0 mm 0.00 in0.0 mm 0.00 in0.0 mm
03:50 PM 60.1°F15.6°C 50.3°F10.2°C 70% 7.3 mph NNW11.7 kmh NNW 8.1 mph13.0 kmh 30.03 in1016.9 mb 0.00 in0.0 mm 0.00 in0.0 mm 0.00 in0.0 mm
03:55 PM 59.7°F15.4°C 50.3°F10.2°C 71% 6.3 mph N10.1 kmh N 8.1 mph13.0 kmh 30.03 in1016.9 mb 0.00 in0.0 mm 0.00 in0.0 mm 0.00 in0.0 mm
04:00 PM 59.7°F15.4°C 50.3°F10.2°C 71% 6.2 mph NW10.0 kmh NW 8.3 mph13.4 kmh 30.02 in1016.6 mb 0.00 in0.0 mm 0.00 in0.0 mm 0.00 in0.0 mm
04:05 PM 59.4°F15.2°C 50.7°F10.4°C 73% 6.7 mph NW10.8 kmh NW 8.3 mph13.4 kmh 30.03 in1016.9 mb 0.00 in0.0 mm 0.00 in0.0 mm 0.00 in0.0 mm
04:10 PM 59.2°F15.1°C 50.5°F10.3°C 73% 5.2 mph WNW8.4 kmh WNW 8.3 mph13.4 kmh 30.02 in1016.6 mb 0.00 in0.0 mm 0.00 in0.0 mm 0.00 in0.0 mm
04:15 PM 59.0°F15.0°C 50.7°F10.4°C 74% 4.6 mph WNW7.4 kmh WNW 4.9 mph7.9 kmh 30.02 in1016.6 mb 0.00 in0.0 mm 0.00 in0.0 mm 0.00 in0.0 mm
04:20 PM 58.8°F14.9°C 50.5°F10.3°C 74% 4.8 mph NW7.7 kmh NW 6.7 mph10.8 kmh 30.02 in1016.6 mb 0.00 in0.0 mm 0.00 in0.0 mm 0.00 in0.0 mm
04:25 PM 58.6°F14.8°C 50.7°F10.4°C 75% 6.3 mph NW10.1 kmh NW 11.2 mph18.0 kmh 30.02 in1016.6 mb 0.00 in0.0 mm 0.00 in0.0 mm 0.00 in0.0 mm
04:30 PM 58.5°F14.7°C 50.6°F10.3°C 75% 6.5 mph WNW10.5 kmh WNW 11.2 mph18.0 kmh 30.02 in1016.6 mb 0.00 in0.0 mm 0.00 in0.0 mm 0.00 in0.0 mm
04:35 PM 58.5°F14.7°C 50.6°F10.3°C 75% 4.7 mph ENE7.6 kmh ENE 11.2 mph18.0 kmh 30.02 in1016.6 mb 0.00 in0.0 mm 0.00 in0.0 mm 0.00 in0.0 mm
04:37 PM 58.5°F14.7°C 50.6°F10.3°C 75% 2.2 mph WNW3.5 kmh WNW 2.2 mph3.5 kmh 30.02 in1016.6 mb 0.00 in0.0 mm 0.00 in0.0 mm 0.00 in0.0 mm
04:40 PM 58.5°F14.7°C 50.9°F10.5°C 76% 4.9 mph NW7.9 kmh NW 10.7 mph17.2 kmh 30.02 in1016.6 mb 0.00 in0.0 mm 0.00 in0.0 mm 0.00 in0.0 mm
04:45 PM 57.9°F14.4°C 50.8°F10.4°C 77% 7.2 mph WNW11.6 kmh WNW 10.7 mph17.2 kmh 30.02 in1016.6 mb 0.00 in0.0 mm 0.00 in0.0 mm 0.00 in0.0 mm
04:50 PM 57.7°F14.3°C 50.6°F10.3°C 77% 7.6 mph WNW12.2 kmh WNW 8.9 mph14.3 kmh 30.02 in1016.6 mb 0.00 in0.0 mm 0.00 in0.0 mm 0.00 in0.0 mm
04:55 PM 57.6°F14.2°C 50.4°F10.2°C 77% 6.4 mph NW10.3 kmh NW 8.9 mph14.3 kmh 30.02 in1016.6 mb 0.00 in0.0 mm 0.00 in0.0 mm 0.00 in0.0 mm
05:00 PM 57.4°F14.1°C 50.6°F10.3°C 78% 4.3 mph NNW6.9 kmh NNW 6.9 mph11.1 kmh 30.02 in1016.6 mb 0.00 in0.0 mm 0.00 in0.0 mm 0.00 in0.0 mm
05:05 PM 57.4°F14.1°C 50.6°F10.3°C 78% 4.1 mph NW6.6 kmh NW 5.4 mph8.7 kmh 30.02 in1016.6 mb 0.00 in0.0 mm 0.00 in0.0 mm 0.00 in0.0 mm
05:10 PM 57.4°F14.1°C 50.6°F10.3°C 78% 4.9 mph WNW7.9 kmh WNW 5.4 mph8.7 kmh 30.02 in1016.6 mb 0.00 in0.0 mm 0.00 in0.0 mm 0.00 in0.0 mm
05:15 PM 56.8°F13.8°C 50.1°F10.1°C 78% 4.5 mph NW7.2 kmh NW 6.9 mph11.1 kmh 30.02 in1016.6 mb 0.00 in0.0 mm 0.00 in0.0 mm 0.00 in0.0 mm
05:20 PM 56.8°F13.8°C 50.4°F10.2°C 79% 4.7 mph NW7.6 kmh NW 6.9 mph11.1 kmh 30.02 in1016.6 mb 0.00 in0.0 mm 0.00 in0.0 mm 0.00 in0.0 mm
05:25 PM 56.5°F13.6°C 50.0°F10.0°C 79% 4.0 mph NW6.4 kmh NW 6.9 mph11.1 kmh 30.02 in1016.6 mb 0.00 in0.0 mm 0.00 in0.0 mm 0.00 in0.0 mm
05:30 PM 56.3°F13.5°C 49.9°F9.9°C 79% 2.5 mph N4.0 kmh N 3.6 mph5.8 kmh 30.02 in1016.6 mb 0.00 in0.0 mm 0.00 in0.0 mm 0.00 in0.0 mm
05:35 PM 56.1°F13.4°C 50.0°F10.0°C 80% 3.4 mph NW5.5 kmh NW 5.1 mph8.2 kmh 30.01 in1016.3 mb 0.00 in0.0 mm 0.00 in0.0 mm 0.00 in0.0 mm
05:37 PM 56.1°F13.4°C 50.0°F10.0°C 80% 4.5 mph WNW7.2 kmh WNW 4.5 mph7.2 kmh 30.02 in1016.6 mb 0.00 in0.0 mm 0.00 in0.0 mm 0.00 in0.0 mm
05:40 PM 56.1°F13.4°C 50.0°F10.0°C 80% 4.1 mph NW6.6 kmh NW 5.1 mph8.2 kmh 30.01 in1016.3 mb 0.00 in0.0 mm 0.00 in0.0 mm 0.00 in0.0 mm
05:45 PM 55.9°F13.3°C 49.9°F9.9°C 80% 3.1 mph NNW5.0 kmh NNW 4.5 mph7.2 kmh 30.01 in1016.3 mb 0.00 in0.0 mm 0.00 in0.0 mm 0.00 in0.0 mm
05:50 PM 55.9°F13.3°C 49.9°F9.9°C 80% 3.1 mph NW5.0 kmh NW 3.8 mph6.1 kmh 30.01 in1016.3 mb 0.00 in0.0 mm 0.00 in0.0 mm 0.00 in0.0 mm
05:55 PM 55.9°F13.3°C 49.9°F9.9°C 80% 3.7 mph NW6.0 kmh NW 3.8 mph6.1 kmh 30.01 in1016.3 mb 0.00 in0.0 mm 0.00 in0.0 mm 0.00 in0.0 mm
06:00 PM 55.9°F13.3°C 49.9°F9.9°C 80% 3.4 mph NW5.5 kmh NW 4.0 mph6.4 kmh 30.01 in1016.3 mb 0.00 in0.0 mm 0.00 in0.0 mm 0.00 in0.0 mm
06:05 PM 55.8°F13.2°C 50.0°F10.0°C 81% 3.2 mph NW5.1 kmh NW 6.7 mph10.8 kmh 30.01 in1016.3 mb 0.00 in0.0 mm 0.00 in0.0 mm 0.00 in0.0 mm
06:10 PM 55.8°F13.2°C 50.0°F10.0°C 81% 5.1 mph WNW8.2 kmh WNW 6.7 mph10.8 kmh 30.01 in1016.3 mb 0.00 in0.0 mm 0.00 in0.0 mm 0.00 in0.0 mm
06:15 PM 55.8°F13.2°C 50.0°F10.0°C 81% 6.7 mph WNW10.8 kmh WNW 6.7 mph10.8 kmh 30.01 in1016.3 mb 0.00 in0.0 mm 0.00 in0.0 mm 0.00 in0.0 mm
06:20 PM 55.8°F13.2°C 50.0°F10.0°C 81% 6.2 mph WNW10.0 kmh WNW 6.7 mph10.8 kmh 30.01 in1016.3 mb 0.00 in0.0 mm 0.00 in0.0 mm 0.00 in0.0 mm
06:25 PM 55.6°F13.1°C 49.8°F9.9°C 81% 4.7 mph NW7.6 kmh NW 6.7 mph10.8 kmh 30.01 in1016.3 mb 0.00 in0.0 mm 0.00 in0.0 mm 0.00 in0.0 mm
06:30 PM 55.6°F13.1°C 49.8°F9.9°C 81% 3.7 mph NNW6.0 kmh NNW 4.5 mph7.2 kmh 30.01 in1016.3 mb 0.00 in0.0 mm 0.00 in0.0 mm 0.00 in0.0 mm
06:35 PM 55.6°F13.1°C 49.8°F9.9°C 81% 3.7 mph N6.0 kmh N 5.6 mph9.0 kmh 30.00 in1015.9 mb 0.00 in0.0 mm 0.00 in0.0 mm 0.00 in0.0 mm
06:37 PM 55.6°F13.1°C 49.8°F9.9°C 81% 2.2 mph N3.5 kmh N 2.2 mph3.5 kmh 30.00 in1015.9 mb 0.00 in0.0 mm 0.00 in0.0 mm 0.00 in0.0 mm
06:40 PM 55.4°F13.0°C 49.7°F9.8°C 81% 4.8 mph WSW7.7 kmh WSW 7.8 mph12.6 kmh 30.00 in1015.9 mb 0.00 in0.0 mm 0.00 in0.0 mm 0.00 in0.0 mm
06:45 PM 55.6°F13.1°C 49.8°F9.9°C 81% 5.8 mph SSW9.3 kmh SSW 7.8 mph12.6 kmh 30.00 in1015.9 mb 0.00 in0.0 mm 0.00 in0.0 mm 0.00 in0.0 mm
06:50 PM 55.6°F13.1°C 49.8°F9.9°C 81% 4.7 mph WSW7.6 kmh WSW 7.8 mph12.6 kmh 30.00 in1015.9 mb 0.00 in0.0 mm 0.00 in0.0 mm 0.00 in0.0 mm
06:55 PM 55.6°F13.1°C 49.8°F9.9°C 81% 3.6 mph NW5.8 kmh NW 3.8 mph6.1 kmh 30.00 in1015.9 mb 0.00 in0.0 mm 0.00 in0.0 mm 0.00 in0.0 mm
07:00 PM 55.6°F13.1°C 49.8°F9.9°C 81% 4.6 mph NNW7.4 kmh NNW 8.7 mph14.0 kmh 30.00 in1015.9 mb 0.00 in0.0 mm 0.00 in0.0 mm 0.00 in0.0 mm
07:05 PM 55.6°F13.1°C 49.8°F9.9°C 81% 6.0 mph NW9.7 kmh NW 8.7 mph14.0 kmh 30.00 in1015.9 mb 0.00 in0.0 mm 0.00 in0.0 mm 0.00 in0.0 mm
07:10 PM 55.6°F13.1°C 49.8°F9.9°C 81% 5.8 mph NW9.3 kmh NW 8.7 mph14.0 kmh 29.99 in1015.6 mb 0.00 in0.0 mm 0.00 in0.0 mm 0.00 in0.0 mm
07:15 PM 55.6°F13.1°C 49.8°F9.9°C 81% 4.1 mph NNW6.6 kmh NNW 7.6 mph12.2 kmh 30.00 in1015.9 mb 0.00 in0.0 mm 0.00 in0.0 mm 0.00 in0.0 mm
07:20 PM 55.6°F13.1°C 49.8°F9.9°C 81% 3.4 mph N5.5 kmh N 3.4 mph5.5 kmh 30.00 in1015.9 mb 0.00 in0.0 mm 0.00 in0.0 mm 0.00 in0.0 mm
07:25 PM 55.6°F13.1°C 49.8°F9.9°C 81% 3.4 mph N5.5 kmh N 3.4 mph5.5 kmh 30.00 in1015.9 mb 0.00 in0.0 mm 0.00 in0.0 mm 0.00 in0.0 mm
07:30 PM 55.6°F13.1°C 49.8°F9.9°C 81% 3.4 mph NW5.5 kmh NW 3.6 mph5.8 kmh 29.99 in1015.6 mb 0.00 in0.0 mm 0.00 in0.0 mm 0.00 in0.0 mm
07:35 PM 55.6°F13.1°C 49.8°F9.9°C 81% 3.0 mph NW4.8 kmh NW 4.5 mph7.2 kmh 29.99 in1015.6 mb 0.00 in0.0 mm 0.00 in0.0 mm 0.00 in0.0 mm
07:37 PM 55.6°F13.1°C 49.8°F9.9°C 81% 4.5 mph NW7.2 kmh NW 4.5 mph7.2 kmh 29.99 in1015.6 mb 0.00 in0.0 mm 0.00 in0.0 mm 0.00 in0.0 mm
07:40 PM 55.6°F13.1°C 49.8°F9.9°C 81% 3.7 mph NW6.0 kmh NW 5.1 mph8.2 kmh 29.99 in1015.6 mb 0.00 in0.0 mm 0.00 in0.0 mm 0.00 in0.0 mm
07:45 PM 55.6°F13.1°C 49.8°F9.9°C 81% 5.0 mph NW8.0 kmh NW 5.1 mph8.2 kmh 29.99 in1015.6 mb 0.00 in0.0 mm 0.00 in0.0 mm 0.00 in0.0 mm
07:50 PM 55.8°F13.2°C 50.0°F10.0°C 81% 3.9 mph NW6.3 kmh NW 5.1 mph8.2 kmh 29.99 in1015.6 mb 0.00 in0.0 mm 0.00 in0.0 mm 0.00 in0.0 mm
07:55 PM 55.8°F13.2°C 50.3°F10.2°C 82% 2.3 mph NNW3.7 kmh NNW 5.1 mph8.2 kmh 29.99 in1015.6 mb 0.00 in0.0 mm 0.00 in0.0 mm 0.00 in0.0 mm
08:00 PM 55.9°F13.3°C 50.5°F10.3°C 82% 2.9 mph NW4.7 kmh NW 6.7 mph10.8 kmh 29.99 in1015.6 mb 0.00 in0.0 mm 0.00 in0.0 mm 0.00 in0.0 mm
08:05 PM 55.9°F13.3°C 50.5°F10.3°C 82% 5.4 mph WNW8.7 kmh WNW 6.7 mph10.8 kmh 29.99 in1015.6 mb 0.00 in0.0 mm 0.00 in0.0 mm 0.00 in0.0 mm
08:10 PM 55.9°F13.3°C 50.5°F10.3°C 82% 6.7 mph WNW10.8 kmh WNW 6.7 mph10.8 kmh 29.99 in1015.6 mb 0.00 in0.0 mm 0.00 in0.0 mm 0.00 in0.0 mm
08:15 PM 55.9°F13.3°C 50.5°F10.3°C 82% 6.7 mph WNW10.8 kmh WNW 6.7 mph10.8 kmh 29.99 in1015.6 mb 0.00 in0.0 mm 0.00 in0.0 mm 0.00 in0.0 mm
08:20 PM 55.9°F13.3°C 50.5°F10.3°C 82% 4.9 mph NW7.9 kmh NW 6.7 mph10.8 kmh 29.99 in1015.6 mb 0.00 in0.0 mm 0.00 in0.0 mm 0.00 in0.0 mm
08:25 PM 55.9°F13.3°C 50.5°F10.3°C 82% 2.9 mph NNW4.7 kmh NNW 6.7 mph10.8 kmh 29.99 in1015.6 mb 0.00 in0.0 mm 0.00 in0.0 mm 0.00 in0.0 mm
08:30 PM 55.9°F13.3°C 50.5°F10.3°C 82% 2.7 mph NNW4.3 kmh NNW 2.7 mph4.3 kmh 29.99 in1015.6 mb 0.00 in0.0 mm 0.00 in0.0 mm 0.00 in0.0 mm
08:35 PM 56.3°F13.5°C 50.5°F10.3°C 81% 2.5 mph NNW4.0 kmh NNW 2.7 mph4.3 kmh 29.99 in1015.6 mb 0.00 in0.0 mm 0.00 in0.0 mm 0.00 in0.0 mm
08:37 PM 56.3°F13.5°C 50.5°F10.3°C 81% 2.2 mph NNE3.5 kmh NNE 2.2 mph3.5 kmh 29.98 in1015.2 mb 0.00 in0.0 mm 0.00 in0.0 mm 0.00 in0.0 mm
08:40 PM 56.5°F13.6°C 50.7°F10.4°C 81% 2.3 mph NNW3.7 kmh NNW 3.4 mph5.5 kmh 29.99 in1015.6 mb 0.00 in0.0 mm 0.00 in0.0 mm 0.00 in0.0 mm
08:45 PM 56.5°F13.6°C 50.7°F10.4°C 81% 2.6 mph NNW4.2 kmh NNW 3.4 mph5.5 kmh 29.98 in1015.2 mb 0.00 in0.0 mm 0.00 in0.0 mm 0.00 in0.0 mm
08:50 PM 56.5°F13.6°C 50.7°F10.4°C 81% 4.4 mph WNW7.1 kmh WNW 6.3 mph10.1 kmh 29.98 in1015.2 mb 0.00 in0.0 mm 0.00 in0.0 mm 0.00 in0.0 mm
08:55 PM 56.5°F13.6°C 50.7°F10.4°C 81% 4.3 mph W6.9 kmh W 6.3 mph10.1 kmh 29.98 in1015.2 mb 0.00 in0.0 mm 0.00 in0.0 mm 0.00 in0.0 mm
09:00 PM 56.5°F13.6°C 50.7°F10.4°C 81% 1.3 mph W2.1 kmh W 6.3 mph10.1 kmh 29.98 in1015.2 mb 0.00 in0.0 mm 0.00 in0.0 mm 0.00 in0.0 mm
09:05 PM 56.5°F13.6°C 50.7°F10.4°C 81% 0.2 mph NNW0.3 kmh NNW 4.7 mph7.6 kmh 29.98 in1015.2 mb 0.00 in0.0 mm 0.00 in0.0 mm 0.00 in0.0 mm
09:10 PM 56.5°F13.6°C 50.7°F10.4°C 81% 2.5 mph NNW4.0 kmh NNW 4.7 mph7.6 kmh 29.98 in1015.2 mb 0.00 in0.0 mm 0.00 in0.0 mm 0.00 in0.0 mm
09:15 PM 56.5°F13.6°C 50.7°F10.4°C 81% 4.4 mph NW7.1 kmh NW 4.7 mph7.6 kmh 29.98 in1015.2 mb 0.00 in0.0 mm 0.00 in0.0 mm 0.00 in0.0 mm
09:20 PM 56.3°F13.5°C 50.9°F10.5°C 82% 4.3 mph NW6.9 kmh NW 6.0 mph9.7 kmh 29.98 in1015.2 mb 0.00 in0.0 mm 0.00 in0.0 mm 0.00 in0.0 mm
09:25 PM 56.3°F13.5°C 50.9°F10.5°C 82% 4.2 mph WNW6.8 kmh WNW 6.0 mph9.7 kmh 29.98 in1015.2 mb 0.00 in0.0 mm 0.00 in0.0 mm 0.00 in0.0 mm
09:30 PM 56.3°F13.5°C 50.9°F10.5°C 82% 4.2 mph WNW6.8 kmh WNW 6.0 mph9.7 kmh 29.98 in1015.2 mb 0.00 in0.0 mm 0.00 in0.0 mm 0.00 in0.0 mm
09:35 PM 56.1°F13.4°C 50.7°F10.4°C 82% 3.1 mph WNW5.0 kmh WNW 6.0 mph9.7 kmh 29.98 in1015.2 mb 0.00 in0.0 mm 0.00 in0.0 mm 0.00 in0.0 mm
09:37 PM 56.1°F13.4°C 50.7°F10.4°C 82% 2.7 mph NW4.3 kmh NW 2.7 mph4.3 kmh 29.97 in1014.9 mb 0.00 in0.0 mm 0.00 in0.0 mm 0.00 in0.0 mm
09:40 PM 56.1°F13.4°C 50.7°F10.4°C 82% 2.9 mph WNW4.7 kmh WNW 5.8 mph9.3 kmh 29.97 in1014.9 mb 0.00 in0.0 mm 0.00 in0.0 mm 0.00 in0.0 mm
09:45 PM 56.1°F13.4°C 50.7°F10.4°C 82% 4.0 mph WSW6.4 kmh WSW 5.8 mph9.3 kmh 29.97 in1014.9 mb 0.00 in0.0 mm 0.00 in0.0 mm 0.00 in0.0 mm
09:50 PM 56.3°F13.5°C 51.2°F10.7°C 83% 3.5 mph SSW5.6 kmh SSW 4.3 mph6.9 kmh 29.97 in1014.9 mb 0.00 in0.0 mm 0.00 in0.0 mm 0.00 in0.0 mm
09:55 PM 56.3°F13.5°C 51.2°F10.7°C 83% 3.8 mph W6.1 kmh W 5.6 mph9.0 kmh 29.97 in1014.9 mb 0.00 in0.0 mm 0.00 in0.0 mm 0.00 in0.0 mm
10:00 PM 56.1°F13.4°C 51.0°F10.6°C 83% 4.1 mph WNW6.6 kmh WNW 5.6 mph9.0 kmh 29.97 in1014.9 mb 0.00 in0.0 mm 0.00 in0.0 mm 0.00 in0.0 mm
10:05 PM 56.1°F13.4°C 51.0°F10.6°C 83% 2.4 mph WNW3.9 kmh WNW 5.6 mph9.0 kmh 29.97 in1014.9 mb 0.00 in0.0 mm 0.00 in0.0 mm 0.00 in0.0 mm
10:10 PM 56.1°F13.4°C 51.0°F10.6°C 83% 1.4 mph W2.3 kmh W 2.2 mph3.5 kmh 29.96 in1014.6 mb 0.00 in0.0 mm 0.00 in0.0 mm 0.00 in0.0 mm
10:15 PM 56.1°F13.4°C 51.0°F10.6°C 83% 0.9 mph W1.4 kmh W 2.2 mph3.5 kmh 29.97 in1014.9 mb 0.00 in0.0 mm 0.00 in0.0 mm 0.00 in0.0 mm
10:20 PM 55.9°F13.3°C 50.9°F10.5°C 83% 0.1 mph SW0.2 kmh SW 0.7 mph1.1 kmh 29.97 in1014.9 mb 0.00 in0.0 mm 0.00 in0.0 mm 0.00 in0.0 mm
10:25 PM 55.9°F13.3°C 50.9°F10.5°C 83% 0.1 mph SW0.2 kmh SW 0.7 mph1.1 kmh 29.96 in1014.6 mb 0.00 in0.0 mm 0.00 in0.0 mm 0.00 in0.0 mm
10:30 PM 55.8°F13.2°C 50.7°F10.4°C 83% Calm Calm -- 29.96 in1014.6 mb 0.00 in0.0 mm 0.00 in0.0 mm 0.00 in0.0 mm
10:35 PM 55.8°F13.2°C 50.7°F10.4°C 83% Calm Calm -- 29.96 in1014.6 mb 0.00 in0.0 mm 0.00 in0.0 mm 0.00 in0.0 mm
10:37 PM 55.8°F13.2°C 50.7°F10.4°C 83% Calm Calm -- 29.96 in1014.6 mb 0.00 in0.0 mm 0.00 in0.0 mm 0.00 in0.0 mm
10:40 PM 55.6°F13.1°C 50.5°F10.3°C 83% Calm Calm -- 29.96 in1014.6 mb 0.00 in0.0 mm 0.00 in0.0 mm 0.00 in0.0 mm
10:45 PM 55.4°F13.0°C 50.3°F10.2°C 83% Calm Calm -- 29.96 in1014.6 mb 0.00 in0.0 mm 0.00 in0.0 mm 0.00 in0.0 mm
10:50 PM 55.4°F13.0°C 50.3°F10.2°C 83% Calm Calm -- 29.96 in1014.6 mb 0.00 in0.0 mm 0.00 in0.0 mm 0.00 in0.0 mm
10:55 PM 55.2°F12.9°C 50.1°F10.1°C 83% 1.1 mph W1.8 kmh W 5.1 mph8.2 kmh 29.96 in1014.6 mb 0.00 in0.0 mm 0.00 in0.0 mm 0.00 in0.0 mm
11:00 PM 55.2°F12.9°C 50.1°F10.1°C 83% 1.1 mph W1.8 kmh W 5.1 mph8.2 kmh 29.96 in1014.6 mb 0.00 in0.0 mm 0.00 in0.0 mm 0.00 in0.0 mm
11:05 PM 55.0°F12.8°C 50.0°F10.0°C 83% Calm Calm -- 29.96 in1014.6 mb 0.00 in0.0 mm 0.00 in0.0 mm 0.00 in0.0 mm
11:10 PM 55.0°F12.8°C 50.0°F10.0°C 83% Calm Calm -- 29.96 in1014.6 mb 0.00 in0.0 mm 0.00 in0.0 mm 0.00 in0.0 mm
11:15 PM 55.0°F12.8°C 50.0°F10.0°C 83% 0.9 mph SE1.4 kmh SE 2.2 mph3.5 kmh 29.96 in1014.6 mb 0.00 in0.0 mm 0.00 in0.0 mm 0.00 in0.0 mm
11:20 PM 54.7°F12.6°C 49.6°F9.8°C 83% 1.0 mph SE1.6 kmh SE 2.5 mph4.0 kmh 29.96 in1014.6 mb 0.00 in0.0 mm 0.00 in0.0 mm 0.00 in0.0 mm
11:25 PM 54.7°F12.6°C 49.6°F9.8°C 83% 1.0 mph N1.6 kmh N 2.5 mph4.0 kmh 29.96 in1014.6 mb 0.00 in0.0 mm 0.00 in0.0 mm 0.00 in0.0 mm
11:30 PM 54.7°F12.6°C 49.6°F9.8°C 83% 0.8 mph N1.3 kmh N 2.5 mph4.0 kmh 29.96 in1014.6 mb 0.00 in0.0 mm 0.00 in0.0 mm 0.00 in0.0 mm
11:35 PM 54.9°F12.7°C 50.1°F10.1°C 84% Calm Calm -- 29.95 in1014.2 mb 0.00 in0.0 mm 0.00 in0.0 mm 0.00 in0.0 mm
11:37 PM 54.9°F12.7°C 50.1°F10.1°C 84% Calm Calm -- 29.96 in1014.6 mb 0.00 in0.0 mm 0.00 in0.0 mm 0.00 in0.0 mm
11:40 PM 54.9°F12.7°C 50.1°F10.1°C 84% Calm Calm -- 29.95 in1014.2 mb 0.00 in0.0 mm 0.00 in0.0 mm 0.00 in0.0 mm
11:45 PM 54.9°F12.7°C 50.4°F10.2°C 85% 0.6 mph NW1.0 kmh NW 1.8 mph2.9 kmh 29.95 in1014.2 mb 0.00 in0.0 mm 0.00 in0.0 mm 0.00 in0.0 mm
11:50 PM 55.2°F12.9°C 50.8°F10.4°C 85% 1.6 mph WNW2.6 kmh WNW 2.0 mph3.2 kmh 29.96 in1014.6 mb 0.00 in0.0 mm 0.00 in0.0 mm 0.00 in0.0 mm
11:55 PM 55.2°F12.9°C 50.8°F10.4°C 85% 2.0 mph WNW3.2 kmh WNW 2.0 mph3.2 kmh 29.96 in1014.6 mb 0.00 in0.0 mm 0.00 in0.0 mm 0.00 in0.0 mm